createdAt,value
2018-09-25T00:00:05.921Z,6.73
2018-09-25T00:01:06.049Z,6.81
2018-09-25T00:04:06.207Z,6.79
2018-09-25T00:06:05.867Z,6.82
2018-09-25T00:07:05.836Z,6.82
2018-09-25T00:08:05.821Z,6.78
2018-09-25T00:09:05.789Z,6.82
2018-09-25T00:10:05.819Z,6.78
2018-09-25T00:11:06.050Z,6.73
2018-09-25T00:12:05.724Z,6.78
2018-09-25T00:13:05.706Z,6.79
2018-09-25T00:14:05.682Z,6.73
2018-09-25T00:15:05.774Z,6.68
2018-09-25T00:16:05.639Z,6.74
2018-09-25T00:17:05.622Z,6.71
2018-09-25T00:18:05.894Z,6.74
2018-09-25T00:19:05.572Z,6.73
2018-09-25T00:20:05.556Z,6.79
2018-09-25T00:21:05.529Z,6.79
2018-09-25T00:22:05.504Z,6.78
2018-09-25T00:23:05.410Z,6.85
2018-09-25T00:24:05.386Z,6.91
2018-09-25T00:25:06.051Z,6.86
2018-09-25T00:26:05.354Z,6.86
2018-09-25T00:27:05.426Z,6.83
2018-09-25T00:28:05.298Z,6.92
2018-09-25T00:29:05.323Z,6.92
2018-09-25T00:30:05.255Z,6.93
2018-09-25T00:31:05.293Z,6.89
2018-09-25T00:32:05.509Z,6.91
2018-09-25T00:33:05.185Z,6.93
2018-09-25T00:34:05.314Z,6.86
2018-09-25T00:35:05.144Z,6.85
2018-09-25T00:36:05.111Z,6.91
2018-09-25T00:37:05.137Z,6.96
2018-09-25T00:38:05.365Z,6.97
2018-09-25T00:39:05.061Z,6.93
2018-09-25T00:40:05.025Z,6.91
2018-09-25T00:41:05.005Z,6.91
2018-09-25T00:42:04.982Z,6.88
2018-09-25T00:43:05.005Z,6.86
2018-09-25T00:44:05.233Z,6.89
2018-09-25T00:45:04.929Z,6.92
2018-09-25T00:46:04.900Z,6.88
2018-09-25T00:47:04.923Z,6.89
2018-09-25T00:48:04.843Z,6.91
2018-09-25T00:49:04.971Z,6.88
2018-09-25T00:50:05.102Z,6.89
2018-09-25T00:51:04.777Z,6.96
2018-09-25T00:52:04.759Z,6.96
2018-09-25T00:53:04.739Z,6.86
2018-09-25T00:54:04.722Z,6.96
2018-09-25T00:55:04.748Z,6.88
2018-09-25T00:56:04.974Z,6.92
2018-09-25T00:57:04.643Z,6.99
2018-09-25T00:59:04.599Z,6.89
2018-09-25T01:00:04.578Z,6.91
2018-09-25T01:01:04.856Z,6.91
2018-09-25T01:02:04.833Z,6.91
2018-09-25T01:03:04.511Z,6.96
2018-09-25T01:04:04.487Z,6.93
2018-09-25T01:05:04.466Z,6.88
2018-09-25T01:06:04.444Z,6.93
2018-09-25T01:07:04.481Z,6.97
2018-09-25T01:08:04.702Z,6.92
2018-09-25T01:09:04.378Z,6.99
2018-09-25T01:10:04.361Z,7.01
2018-09-25T01:11:04.334Z,7.03
2018-09-25T01:14:04.630Z,6.92
2018-09-25T01:15:04.256Z,7.01
2018-09-25T01:16:04.236Z,7.06
2018-09-25T01:18:04.193Z,7.06
2018-09-25T01:19:04.198Z,6.99
2018-09-25T01:20:04.300Z,6.93
2018-09-25T01:21:04.420Z,6.99
2018-09-25T01:23:04.069Z,6.93
2018-09-25T01:24:04.042Z,6.97
2018-09-25T01:25:04.024Z,7.04
2018-09-25T01:26:04.060Z,7.04
2018-09-25T01:27:03.986Z,6.99
2018-09-25T01:29:04.246Z,6.89
2018-09-25T01:30:03.916Z,6.92
2018-09-25T01:31:03.907Z,6.89
2018-09-25T01:32:04.174Z,6.96
2018-09-25T01:33:03.850Z,6.88
2018-09-25T01:34:03.886Z,6.92
2018-09-25T01:35:04.118Z,6.89
2018-09-25T01:36:04.079Z,6.86
2018-09-25T01:37:03.758Z,6.82
2018-09-25T01:38:03.782Z,6.85
2018-09-25T01:39:03.715Z,6.89
2018-09-25T01:40:03.695Z,6.73
2018-09-25T01:41:03.669Z,6.71
2018-09-25T01:42:03.668Z,6.74
2018-09-25T01:43:03.930Z,6.74
2018-09-25T01:44:03.659Z,6.78
2018-09-25T01:45:03.582Z,6.70
2018-09-25T01:46:03.634Z,6.71
2018-09-25T01:48:03.512Z,6.67
2018-09-25T01:49:03.509Z,6.61
2018-09-25T01:50:03.825Z,6.64
2018-09-25T01:51:03.455Z,6.65
2018-09-25T01:52:03.436Z,6.64
2018-09-25T01:53:03.403Z,6.67
2018-09-25T01:54:03.388Z,6.64
2018-09-25T01:55:03.375Z,6.63
2018-09-25T01:57:03.611Z,6.65
2018-09-25T01:58:03.300Z,6.56
2018-09-25T01:59:03.284Z,6.63
2018-09-25T02:00:03.252Z,6.61
2018-09-25T02:02:03.271Z,6.64
2018-09-25T02:03:03.180Z,6.61
2018-09-25T02:04:03.457Z,6.67
2018-09-25T02:05:03.140Z,6.63
2018-09-25T02:06:03.115Z,6.57
2018-09-25T02:07:03.094Z,6.63
2018-09-25T02:08:03.381Z,6.61
2018-09-25T02:09:03.059Z,6.70
2018-09-25T02:10:03.333Z,6.63
2018-09-25T02:11:03.008Z,6.68
2018-09-25T02:12:02.989Z,6.63
2018-09-25T02:13:02.961Z,6.68
2018-09-25T02:14:02.991Z,6.67
2018-09-25T02:15:02.912Z,6.70
2018-09-25T02:16:03.193Z,6.65
2018-09-25T02:17:02.868Z,6.73
2018-09-25T02:19:02.827Z,6.65
2018-09-25T02:20:02.860Z,6.63
2018-09-25T02:21:02.781Z,6.64
2018-09-25T02:22:03.060Z,6.64
2018-09-25T02:23:02.736Z,6.67
2018-09-25T02:24:02.714Z,6.70
2018-09-25T02:25:02.692Z,6.64
2018-09-25T02:26:02.719Z,6.65
2018-09-25T02:27:02.651Z,6.63
2018-09-25T02:28:02.927Z,6.70
2018-09-25T02:29:02.607Z,6.63
2018-09-25T02:30:02.642Z,6.63
2018-09-25T02:33:02.569Z,6.71
2018-09-25T02:35:02.781Z,6.61
2018-09-25T02:38:02.524Z,6.67
2018-09-25T02:39:02.686Z,6.67
2018-09-25T02:40:02.363Z,6.63
2018-09-25T02:41:02.347Z,6.61
2018-09-25T02:42:02.616Z,6.60
2018-09-25T02:43:02.290Z,6.60
2018-09-25T02:44:02.270Z,6.61
2018-09-25T02:45:02.304Z,6.61
2018-09-25T02:46:02.300Z,6.61
2018-09-25T02:47:02.203Z,6.60
2018-09-25T02:48:02.188Z,6.55
2018-09-25T02:49:02.462Z,6.57
2018-09-25T02:50:02.135Z,6.52
2018-09-25T02:51:02.175Z,6.47
2018-09-25T02:52:02.098Z,6.55
2018-09-25T02:53:02.073Z,6.56
2018-09-25T02:54:02.056Z,6.55
2018-09-25T02:55:02.034Z,6.50
2018-09-25T02:56:02.380Z,6.43
2018-09-25T02:57:02.137Z,6.46
2018-09-25T02:58:01.960Z,6.47
2018-09-25T02:59:01.937Z,6.47
2018-09-25T03:00:01.921Z,6.49
2018-09-25T03:01:01.896Z,6.43
2018-09-25T03:02:01.873Z,6.45
2018-09-25T03:03:02.195Z,6.42
2018-09-25T03:04:01.840Z,6.43
2018-09-25T03:06:01.786Z,6.45
2018-09-25T03:07:01.764Z,6.43
2018-09-25T03:08:01.756Z,6.42
2018-09-25T03:09:01.762Z,6.38
2018-09-25T03:10:01.994Z,6.45
2018-09-25T03:11:01.673Z,6.52
2018-09-25T03:12:01.656Z,6.49
2018-09-25T03:13:01.636Z,6.46
2018-09-25T03:14:01.602Z,6.45
2018-09-25T03:15:01.626Z,6.43
2018-09-25T03:16:01.555Z,6.43
2018-09-25T03:17:01.833Z,6.43
2018-09-25T03:18:01.518Z,6.46
2018-09-25T03:19:01.542Z,6.45
2018-09-25T03:20:01.466Z,6.38
2018-09-25T03:21:01.497Z,6.45
2018-09-25T03:22:01.522Z,6.40
2018-09-25T03:23:01.405Z,6.40
2018-09-25T03:25:01.357Z,6.35
2018-09-25T03:26:01.333Z,6.42
2018-09-25T03:27:01.361Z,6.31
2018-09-25T03:28:01.285Z,6.31
2018-09-25T03:29:01.260Z,6.34
2018-09-25T03:30:01.639Z,6.30
2018-09-25T03:31:01.215Z,6.37
2018-09-25T03:32:01.202Z,6.34
2018-09-25T03:33:01.393Z,6.40
2018-09-25T03:34:01.151Z,6.35
2018-09-25T03:35:01.136Z,6.32
2018-09-25T03:36:01.405Z,6.35
2018-09-25T03:37:01.090Z,6.34
2018-09-25T03:39:01.090Z,6.34
2018-09-25T03:40:01.020Z,6.19
2018-09-25T03:41:00.991Z,6.21
2018-09-25T03:42:01.270Z,6.18
2018-09-25T03:43:00.949Z,6.27
2018-09-25T03:44:00.932Z,6.18
2018-09-25T03:45:00.968Z,6.15
2018-09-25T03:46:00.889Z,6.21
2018-09-25T03:47:01.172Z,6.12
2018-09-25T03:48:01.143Z,6.13
2018-09-25T03:49:00.817Z,6.09
2018-09-25T03:50:00.793Z,6.13
2018-09-25T03:52:01.410Z,6.09
2018-09-25T03:53:00.728Z,6.08
2018-09-25T03:54:01.000Z,6.13
2018-09-25T03:55:00.784Z,6.03
2018-09-25T03:56:00.673Z,6.12
2018-09-25T03:57:00.633Z,6.03
2018-09-25T03:58:00.702Z,6.09
2018-09-25T03:59:00.596Z,6.12
2018-09-25T04:00:00.869Z,6.11
2018-09-25T04:01:00.548Z,6.12
2018-09-25T04:02:00.527Z,6.06
2018-09-25T04:03:00.503Z,6.11
2018-09-25T04:04:00.572Z,6.09
2018-09-25T04:05:00.464Z,6.11
2018-09-25T04:09:00.980Z,6.12
2018-09-25T04:11:00.329Z,6.09
2018-09-25T04:14:00.264Z,6.11
2018-09-25T04:15:00.667Z,6.11
2018-09-25T04:17:00.210Z,6.18
2018-09-25T04:18:00.166Z,6.12
2018-09-25T04:19:00.156Z,6.15
2018-09-25T04:20:00.117Z,6.18
2018-09-25T04:21:00.089Z,6.21
2018-09-25T04:22:00.422Z,6.18
2018-09-25T04:23:00.046Z,6.25
2018-09-25T04:24:00.029Z,6.37
2018-09-25T04:25:00.000Z,6.31
2018-09-25T04:25:59.982Z,6.38
2018-09-25T04:26:59.963Z,6.37
2018-09-25T04:29:00.265Z,6.46
2018-09-25T04:29:59.926Z,6.49
2018-09-25T04:30:59.866Z,6.47
2018-09-25T04:31:59.845Z,6.55
2018-09-25T04:32:59.830Z,6.45
2018-09-25T04:33:59.798Z,6.52
2018-09-25T04:34:59.824Z,6.53
2018-09-25T04:36:00.049Z,6.56
2018-09-25T04:36:59.745Z,6.63
2018-09-25T04:38:00.012Z,6.57
2018-09-25T04:38:59.789Z,6.53
2018-09-25T04:39:59.658Z,6.50
2018-09-25T04:40:59.695Z,6.57
2018-09-25T04:41:59.617Z,6.61
2018-09-25T04:42:59.903Z,6.53
2018-09-25T04:43:59.581Z,6.56
2018-09-25T04:44:59.838Z,6.64
2018-09-25T04:45:59.538Z,6.63
2018-09-25T04:46:59.854Z,6.67
2018-09-25T04:47:59.620Z,6.65
2018-09-25T04:48:59.460Z,6.63
2018-09-25T04:50:00.510Z,6.68
2018-09-25T04:50:59.493Z,6.70
2018-09-25T04:51:59.920Z,6.73
2018-09-25T04:52:59.422Z,6.65
2018-09-25T04:53:59.368Z,6.70
2018-09-25T04:54:59.402Z,6.68
2018-09-25T04:58:59.405Z,6.65
2018-09-25T04:59:59.226Z,6.68
2018-09-25T05:00:59.316Z,6.78
2018-09-25T05:01:59.194Z,6.70
2018-09-25T05:03:00.091Z,6.68
2018-09-25T05:04:00.493Z,6.61
2018-09-25T05:05:00.393Z,6.63
2018-09-25T05:05:59.954Z,6.64
2018-09-25T05:06:59.634Z,6.78
2018-09-25T05:07:59.501Z,6.65
2018-09-25T05:08:59.015Z,6.67
2018-09-25T05:09:59.295Z,6.60
2018-09-25T05:10:59.037Z,6.65
2018-09-25T05:11:58.969Z,6.68
2018-09-25T05:12:58.933Z,6.67
2018-09-25T05:15:00.159Z,6.65
2018-09-25T05:15:58.952Z,6.65
2018-09-25T05:16:59.266Z,6.65
2018-09-25T05:17:58.829Z,6.57
2018-09-25T05:18:58.798Z,6.63
2018-09-25T05:19:58.791Z,6.63
2018-09-25T05:22:59.066Z,6.64
2018-09-25T05:23:58.689Z,6.50
2018-09-25T05:24:58.792Z,6.55
2018-09-25T05:25:58.645Z,6.53
2018-09-25T05:26:58.627Z,6.53
2018-09-25T05:27:58.708Z,6.52
2018-09-25T05:28:58.633Z,6.45
2018-09-25T05:29:58.854Z,6.47
2018-09-25T05:30:58.589Z,6.38
2018-09-25T05:31:58.518Z,6.52
2018-09-25T05:32:58.493Z,6.60
2018-09-25T05:33:58.470Z,6.52
2018-09-25T05:34:58.497Z,6.56
2018-09-25T05:36:58.708Z,6.43
2018-09-25T05:37:58.389Z,6.45
2018-09-25T05:38:58.385Z,6.45
2018-09-25T05:39:58.339Z,6.43
2018-09-25T05:40:58.473Z,6.50
2018-09-25T05:41:58.295Z,6.42
2018-09-25T05:42:58.327Z,6.42
2018-09-25T05:43:58.568Z,6.46
2018-09-25T05:44:58.236Z,6.46
2018-09-25T05:45:58.306Z,6.46
2018-09-25T05:46:58.236Z,6.45
2018-09-25T05:48:58.172Z,6.57
2018-09-25T05:49:58.426Z,6.52
2018-09-25T05:50:58.100Z,6.57
2018-09-25T05:51:58.077Z,6.61
2018-09-25T05:52:58.112Z,6.61
2018-09-25T05:53:58.039Z,6.60
2018-09-25T05:54:58.017Z,6.73
2018-09-25T05:55:58.297Z,6.68
2018-09-25T05:56:58.252Z,6.74
2018-09-25T05:57:58.421Z,6.65
2018-09-25T05:58:57.995Z,6.73
2018-09-25T05:59:57.900Z,6.68
2018-09-25T06:00:57.933Z,6.67
2018-09-25T06:01:57.862Z,6.57
2018-09-25T06:02:58.143Z,6.63
2018-09-25T06:03:57.828Z,6.60
2018-09-25T06:04:57.847Z,6.64
2018-09-25T06:05:57.775Z,6.63
2018-09-25T06:06:57.757Z,6.70
2018-09-25T06:08:58.017Z,6.81
2018-09-25T06:09:57.693Z,6.85
2018-09-25T06:10:57.720Z,6.88
2018-09-25T06:11:57.707Z,6.92
2018-09-25T06:14:57.578Z,7.03
2018-09-25T06:15:57.860Z,7.01
2018-09-25T06:16:57.585Z,7.19
2018-09-25T06:17:57.549Z,7.15
2018-09-25T06:18:57.504Z,7.19
2018-09-25T06:19:57.476Z,7.15
2018-09-25T06:20:57.482Z,7.29
2018-09-25T06:21:57.786Z,7.28
2018-09-25T06:22:57.494Z,7.33
2018-09-25T06:23:57.511Z,7.40
2018-09-25T06:24:57.495Z,7.46
2018-09-25T06:25:57.401Z,7.49
2018-09-25T06:26:57.539Z,7.54
2018-09-25T06:28:57.704Z,7.52
2018-09-25T06:29:57.272Z,7.64
2018-09-25T06:30:57.326Z,7.69
2018-09-25T06:31:57.298Z,7.58
2018-09-25T06:32:57.264Z,7.69
2018-09-25T06:33:57.997Z,7.74
2018-09-25T06:34:57.808Z,7.71
2018-09-25T06:35:57.183Z,7.71
2018-09-25T06:36:57.251Z,7.84
2018-09-25T06:37:57.159Z,7.77
2018-09-25T06:38:57.073Z,7.78
2018-09-25T06:39:57.323Z,7.80
2018-09-25T06:40:57.435Z,7.76
2018-09-25T06:41:57.071Z,7.88
2018-09-25T06:42:57.009Z,7.86
2018-09-25T06:43:57.019Z,7.96
2018-09-25T06:44:57.050Z,7.96
2018-09-25T06:45:57.029Z,8.01
2018-09-25T06:46:58.278Z,8.02
2018-09-25T06:47:56.981Z,8.09
2018-09-25T06:48:56.865Z,8.16
2018-09-25T06:49:56.939Z,8.13
2018-09-25T06:50:56.819Z,8.19
2018-09-25T06:51:56.788Z,8.20
2018-09-25T06:52:57.072Z,8.21
2018-09-25T07:00:56.625Z,8.53
2018-09-25T07:01:56.609Z,8.52
2018-09-25T07:04:56.629Z,8.60
2018-09-25T07:25:56.101Z,9.84
2018-09-25T07:26:56.077Z,9.90
2018-09-25T07:27:56.110Z,9.90
2018-09-25T07:28:56.087Z,10.06
2018-09-25T07:29:56.013Z,10.01
2018-09-25T07:30:56.054Z,10.17
2018-09-25T07:35:55.885Z,10.48
2018-09-25T07:36:55.899Z,10.46
2018-09-25T07:37:56.146Z,10.55
2018-09-25T07:38:55.849Z,10.61
2018-09-25T07:39:55.803Z,10.68
2018-09-25T07:43:56.033Z,10.73
2018-09-25T07:44:55.713Z,10.80
2018-09-25T07:45:55.722Z,10.85
2018-09-25T07:46:55.729Z,10.97
2018-09-25T07:47:55.658Z,10.98
2018-09-25T07:48:55.644Z,11.03
2018-09-25T07:49:55.920Z,11.13
2018-09-25T07:50:55.598Z,11.20
2018-09-25T07:51:55.587Z,11.15
2018-09-25T07:52:55.605Z,11.19
2018-09-25T07:55:55.866Z,11.34
2018-09-25T07:57:55.458Z,11.55
2018-09-25T07:58:55.741Z,11.59
2018-09-25T07:59:55.419Z,11.74
2018-09-25T08:00:55.410Z,11.69
2018-09-25T08:03:55.351Z,11.77
2018-09-25T08:05:55.318Z,11.99
2018-09-25T08:06:55.291Z,11.91
2018-09-25T08:07:55.274Z,12.00
2018-09-25T08:08:55.575Z,11.91
2018-09-25T08:09:55.244Z,11.91
2018-09-25T08:10:55.283Z,11.80
2018-09-25T08:11:55.216Z,11.96
2018-09-25T08:12:55.194Z,12.07
2018-09-25T08:13:55.172Z,12.18
2018-09-25T08:16:55.227Z,12.33
2018-09-25T08:18:55.082Z,12.36
2018-09-25T08:19:55.071Z,12.54
2018-09-25T08:20:55.104Z,12.44
2018-09-25T08:21:55.033Z,12.50
2018-09-25T08:22:55.355Z,12.51
2018-09-25T08:23:55.038Z,12.55
2018-09-25T08:24:54.977Z,12.61
2018-09-25T08:25:54.991Z,12.72
2018-09-25T08:27:54.922Z,12.71
2018-09-25T08:28:55.251Z,12.66
2018-09-25T08:32:07.580Z,12.80
2018-09-25T08:32:54.834Z,12.83
2018-09-25T08:33:54.816Z,12.81
2018-09-25T08:35:55.092Z,13.01
2018-09-25T08:38:54.883Z,13.30
2018-09-25T08:39:54.724Z,13.29
2018-09-25T08:40:54.756Z,13.35
2018-09-25T08:41:54.988Z,13.38
2018-09-25T08:43:54.670Z,13.49
2018-09-25T08:51:54.540Z,14.00
2018-09-25T08:52:54.576Z,13.97
2018-09-25T08:54:54.784Z,14.11
2018-09-25T08:57:54.495Z,14.15
2018-09-25T08:58:54.473Z,14.27
2018-09-25T08:59:54.503Z,14.13
2018-09-25T09:01:54.668Z,14.22
2018-09-25T09:02:54.361Z,14.22
2018-09-25T09:03:54.345Z,14.40
2018-09-25T09:04:54.669Z,14.31
2018-09-25T09:05:54.326Z,14.27
2018-09-25T09:06:54.304Z,14.30
2018-09-25T09:07:54.591Z,14.41
2018-09-25T09:08:54.265Z,14.41
2018-09-25T09:09:54.268Z,14.34
2018-09-25T09:10:54.282Z,14.30
2018-09-25T09:11:54.228Z,14.36
2018-09-25T09:12:54.207Z,14.41
2018-09-25T09:13:54.495Z,14.59
2018-09-25T09:14:54.178Z,14.58
2018-09-25T09:15:54.211Z,14.64
2018-09-25T09:17:54.757Z,14.69
2018-09-25T09:19:54.451Z,14.82
2018-09-25T09:24:54.031Z,14.77
2018-09-25T09:25:54.324Z,14.82
2018-09-25T09:26:54.000Z,14.63
2018-09-25T09:28:54.035Z,14.64
2018-09-25T09:30:53.967Z,14.73
2018-09-25T09:31:54.251Z,14.99
2018-09-25T09:32:53.925Z,15.14
2018-09-25T09:33:53.921Z,15.27
2018-09-25T09:34:53.944Z,15.41
2018-09-25T09:35:53.951Z,15.36
2018-09-25T09:36:53.874Z,15.54
2018-09-25T09:37:54.157Z,15.81
2018-09-25T09:38:53.834Z,15.40
2018-09-25T09:40:53.914Z,14.56
2018-09-25T09:41:53.993Z,14.83
2018-09-25T09:43:54.091Z,14.77
2018-09-25T09:44:53.758Z,14.77
2018-09-25T09:45:53.751Z,15.04
2018-09-25T09:46:53.861Z,15.29
2018-09-25T09:47:53.949Z,15.43
2018-09-25T09:48:53.710Z,15.66
2018-09-25T09:49:53.767Z,15.66
2018-09-25T09:50:53.995Z,15.93
2018-09-25T09:51:53.816Z,16.02
2018-09-25T09:52:53.721Z,15.96
2018-09-25T09:53:53.679Z,15.73
2018-09-25T09:54:53.642Z,15.87
2018-09-25T09:55:53.613Z,15.90
2018-09-25T09:56:53.922Z,15.83
2018-09-25T09:57:53.607Z,15.50
2018-09-25T09:58:53.631Z,15.05
2018-09-25T09:59:53.811Z,14.93
2018-09-25T10:00:53.572Z,14.77
2018-09-25T10:01:53.538Z,14.64
2018-09-25T10:02:53.843Z,14.59
2018-09-25T10:03:53.763Z,14.90
2018-09-25T10:04:54.023Z,15.52
2018-09-25T10:05:53.515Z,15.84
2018-09-25T10:06:53.691Z,16.14
2018-09-25T10:07:53.466Z,15.98
2018-09-25T10:08:53.454Z,16.59
2018-09-25T10:09:53.737Z,16.97
2018-09-25T10:10:53.483Z,17.02
2018-09-25T10:11:53.417Z,16.95
2018-09-25T10:12:53.423Z,16.47
2018-09-25T10:13:53.391Z,15.87
2018-09-25T10:14:53.489Z,15.56
2018-09-25T10:15:53.701Z,15.40
2018-09-25T10:16:53.411Z,15.32
2018-09-25T10:17:53.354Z,15.23
2018-09-25T10:18:53.500Z,15.08
2018-09-25T10:19:53.388Z,15.12
2018-09-25T10:21:53.343Z,16.03
2018-09-25T10:22:53.676Z,16.16
2018-09-25T10:27:53.246Z,16.55
2018-09-25T10:28:53.297Z,16.54
2018-09-25T10:29:53.514Z,16.17
2018-09-25T10:30:53.228Z,15.85
2018-09-25T10:31:53.219Z,15.63
2018-09-25T10:32:53.528Z,15.51
2018-09-25T10:33:53.435Z,15.25
2018-09-25T10:34:53.216Z,15.25
2018-09-25T10:35:53.451Z,15.04
2018-09-25T10:36:53.157Z,14.73
2018-09-25T10:37:53.142Z,15.05
2018-09-25T10:38:53.117Z,15.58
2018-09-25T10:39:53.305Z,15.95
2018-09-25T10:40:53.147Z,16.32
2018-09-25T10:41:53.385Z,16.54
2018-09-25T10:42:53.078Z,16.47
2018-09-25T10:43:53.172Z,15.90
2018-09-25T10:44:53.096Z,15.69
2018-09-25T10:45:53.032Z,15.29
2018-09-25T10:46:53.080Z,15.17
2018-09-25T10:47:53.331Z,14.99
2018-09-25T10:48:52.994Z,15.51
2018-09-25T10:49:53.050Z,16.00
2018-09-25T10:50:53.109Z,16.46
2018-09-25T10:51:52.964Z,16.16
2018-09-25T10:52:53.421Z,15.85
2018-09-25T10:53:53.307Z,15.76
2018-09-25T10:54:52.928Z,15.69
2018-09-25T10:55:53.528Z,15.51
2018-09-25T10:56:52.905Z,15.44
2018-09-25T10:57:52.939Z,15.36
2018-09-25T10:58:52.949Z,15.35
2018-09-25T10:59:53.173Z,15.35
2018-09-25T11:00:52.959Z,15.05
2018-09-25T11:01:52.849Z,15.07
2018-09-25T11:02:53.064Z,15.19
2018-09-25T11:03:53.073Z,16.06
2018-09-25T11:06:52.848Z,16.76
2018-09-25T11:07:52.837Z,16.97
2018-09-25T11:08:52.760Z,17.45
2018-09-25T11:09:52.814Z,17.75
2018-09-25T11:10:52.811Z,17.65
2018-09-25T11:11:52.736Z,18.18
2018-09-25T11:12:53.085Z,18.39
2018-09-25T11:16:52.732Z,18.71
2018-09-25T11:17:52.693Z,18.09
2018-09-25T11:18:52.720Z,17.49
2018-09-25T11:19:53.004Z,17.59
2018-09-25T11:26:52.721Z,18.67
2018-09-25T11:27:52.584Z,18.03
2018-09-25T11:29:52.610Z,17.06
2018-09-25T11:31:52.544Z,16.26
2018-09-25T11:32:52.960Z,16.09
2018-09-25T11:33:52.557Z,15.93
2018-09-25T11:36:52.542Z,15.69
2018-09-25T11:37:52.466Z,15.72
2018-09-25T11:38:52.773Z,15.51
2018-09-25T11:39:52.456Z,15.52
2018-09-25T11:41:52.433Z,15.62
2018-09-25T11:42:52.687Z,15.69
2018-09-25T11:43:52.650Z,15.60
2018-09-25T11:44:52.720Z,15.58
2018-09-25T11:45:52.697Z,15.51
2018-09-25T11:46:52.497Z,15.62
2018-09-25T11:47:52.581Z,15.80
2018-09-25T11:48:52.416Z,15.77
2018-09-25T11:49:52.376Z,16.10
2018-09-25T11:50:52.839Z,16.92
2018-09-25T11:51:52.640Z,17.62
2018-09-25T11:52:52.679Z,17.50
2018-09-25T11:53:52.569Z,17.04
2018-09-25T11:54:52.571Z,16.72
2018-09-25T11:55:52.292Z,16.54
2018-09-25T11:56:52.257Z,16.99
2018-09-25T11:57:52.554Z,16.90
2018-09-25T11:58:52.372Z,16.65
2018-09-25T11:59:52.221Z,16.58
2018-09-25T12:01:52.239Z,16.42
2018-09-25T12:02:52.733Z,16.17
2018-09-25T12:03:55.635Z,16.00
2018-09-25T12:04:52.161Z,15.96
2018-09-25T12:05:52.227Z,15.76
2018-09-25T12:06:52.212Z,15.63
2018-09-25T12:07:52.968Z,15.66
2018-09-25T12:08:52.408Z,15.63
2018-09-25T12:09:52.394Z,15.54
2018-09-25T12:10:52.188Z,15.87
2018-09-25T12:11:52.128Z,16.42
2018-09-25T12:12:52.150Z,17.30
2018-09-25T12:13:52.092Z,17.02
2018-09-25T12:15:52.330Z,17.86
2018-09-25T12:16:52.008Z,18.43
2018-09-25T12:17:52.028Z,18.70
2018-09-25T12:18:52.031Z,18.94
2018-09-25T12:19:52.095Z,18.38
2018-09-25T12:20:52.500Z,17.99
2018-09-25T12:21:52.252Z,17.30
2018-09-25T12:22:51.935Z,16.99
2018-09-25T12:24:52.008Z,16.64
2018-09-25T12:25:51.948Z,16.28
2018-09-25T12:26:51.958Z,16.21
2018-09-25T12:27:52.180Z,16.22
2018-09-25T12:28:51.868Z,16.14
2018-09-25T12:29:51.861Z,16.02
2018-09-25T12:30:51.898Z,15.91
2018-09-25T12:31:51.838Z,15.85
2018-09-25T12:32:51.849Z,15.85
2018-09-25T12:33:52.140Z,15.88
2018-09-25T12:34:51.796Z,15.87
2018-09-25T12:35:52.148Z,15.84
2018-09-25T12:36:51.843Z,15.87
2018-09-25T12:37:51.900Z,15.85
2018-09-25T12:38:51.785Z,15.78
2018-09-25T12:39:52.035Z,15.65
2018-09-25T12:40:51.739Z,15.69
2018-09-25T12:41:51.736Z,15.58
2018-09-25T12:42:51.750Z,15.50
2018-09-25T12:43:51.699Z,15.41
2018-09-25T12:44:51.761Z,15.44
2018-09-25T12:45:52.226Z,15.45
2018-09-25T12:46:51.691Z,15.51
2018-09-25T12:47:51.629Z,15.58
2018-09-25T12:48:51.701Z,15.54
2018-09-25T12:50:51.612Z,16.58
2018-09-25T12:51:51.880Z,16.47
2018-09-25T12:52:51.576Z,17.02
2018-09-25T12:53:51.629Z,18.01
2018-09-25T12:54:51.680Z,17.94
2018-09-25T12:55:51.524Z,17.68
2018-09-25T12:56:51.510Z,17.41
2018-09-25T12:57:51.803Z,16.94
2018-09-25T12:58:51.489Z,16.54
2018-09-25T12:59:51.475Z,16.47
2018-09-25T13:00:51.508Z,16.28
2018-09-25T13:01:51.447Z,16.24
2018-09-25T13:03:51.768Z,17.24
2018-09-25T13:04:51.459Z,17.13
2018-09-25T13:05:51.420Z,17.38
2018-09-25T13:09:51.636Z,17.04
2018-09-25T13:10:51.341Z,16.90
2018-09-25T13:11:51.343Z,16.82
2018-09-25T13:12:51.359Z,16.82
2018-09-25T13:13:51.304Z,16.72
2018-09-25T13:14:51.357Z,17.22
2018-09-25T13:15:51.682Z,17.75
2018-09-25T13:16:51.252Z,18.39
2018-09-25T13:17:51.279Z,19.09
2018-09-25T13:18:51.308Z,19.41
2018-09-25T13:19:51.214Z,19.86
2018-09-25T13:20:51.249Z,20.29
2018-09-25T13:21:51.506Z,20.67
2018-09-25T13:22:51.183Z,20.34
2018-09-25T13:23:51.270Z,19.84
2018-09-25T13:24:51.216Z,18.58
2018-09-25T13:25:51.141Z,17.90
2018-09-25T13:26:51.787Z,17.28
2018-09-25T13:27:53.553Z,16.98
2018-09-25T13:29:51.816Z,16.62
2018-09-25T13:30:51.840Z,16.42
2018-09-25T13:31:51.816Z,16.29
2018-09-25T13:32:51.182Z,16.18
2018-09-25T13:33:51.443Z,16.16
2018-09-25T13:34:51.069Z,16.14
2018-09-25T13:35:51.031Z,16.06
2018-09-25T13:36:51.085Z,16.14
2018-09-25T13:37:51.228Z,16.21
2018-09-25T13:38:51.005Z,16.73
2018-09-25T13:39:51.279Z,16.54
2018-09-25T13:40:51.739Z,16.82
2018-09-25T13:41:50.977Z,17.41
2018-09-25T13:42:51.125Z,17.76
2018-09-25T13:44:50.923Z,17.16
2018-09-25T13:45:51.704Z,17.39
2018-09-25T13:46:50.974Z,17.43
2018-09-25T13:47:50.992Z,17.25
2018-09-25T13:48:50.915Z,17.73
2018-09-25T13:50:50.895Z,17.65
2018-09-25T13:51:51.128Z,17.12
2018-09-25T13:52:50.817Z,16.84
2018-09-25T13:53:50.942Z,16.47
2018-09-25T13:55:50.879Z,16.06
2018-09-25T13:56:50.786Z,16.02
2018-09-25T13:57:51.079Z,16.13
2018-09-25T13:58:50.813Z,16.17
2018-09-25T13:59:50.729Z,16.21
2018-09-25T14:00:50.718Z,16.42
2018-09-25T14:01:50.854Z,16.09
2018-09-25T14:02:50.736Z,15.96
2018-09-25T14:03:51.031Z,15.99
2018-09-25T14:04:50.739Z,15.93
2018-09-25T14:05:50.676Z,15.72
2018-09-25T14:06:50.665Z,15.76
2018-09-25T14:07:50.698Z,15.60
2018-09-25T14:08:50.747Z,15.50
2018-09-25T14:09:50.953Z,15.45
2018-09-25T14:10:50.585Z,15.41
2018-09-25T14:11:50.640Z,15.32
2018-09-25T14:12:50.550Z,15.22
2018-09-25T14:13:50.593Z,15.10
2018-09-25T14:15:50.825Z,15.05
2018-09-25T14:16:50.599Z,15.17
2018-09-25T14:17:50.504Z,15.23
2018-09-25T14:18:50.479Z,15.15
2018-09-25T14:19:50.556Z,15.15
2018-09-25T14:20:50.503Z,15.27
2018-09-25T14:21:51.702Z,15.35
2018-09-25T14:22:51.766Z,15.40
2018-09-25T14:23:51.258Z,16.06
2018-09-25T14:24:51.319Z,16.64
2018-09-25T14:25:53.597Z,16.97
2018-09-25T14:27:50.660Z,17.12
2018-09-25T14:28:50.680Z,17.27
2018-09-25T14:29:50.307Z,17.41
2018-09-25T14:30:50.385Z,17.84
2018-09-25T14:31:50.355Z,18.08
2018-09-25T14:32:50.270Z,18.31
2018-09-25T14:33:50.549Z,18.58
2018-09-25T14:34:50.338Z,18.74
2018-09-25T14:37:50.300Z,18.94
2018-09-25T14:38:50.542Z,19.13
2018-09-25T14:39:50.844Z,19.16
2018-09-25T14:40:50.496Z,19.24
2018-09-25T14:41:50.482Z,18.96
2018-09-25T14:42:50.643Z,18.86
2018-09-25T14:43:51.054Z,18.91
2018-09-25T14:44:50.194Z,19.07
2018-09-25T14:45:50.442Z,19.01
2018-09-25T14:46:50.080Z,19.27
2018-09-25T14:47:50.201Z,19.30
2018-09-25T14:48:50.171Z,19.34
2018-09-25T14:49:50.127Z,19.32
2018-09-25T14:51:50.378Z,19.09
2018-09-25T14:52:50.033Z,18.86
2018-09-25T14:53:50.049Z,18.82
2018-09-25T14:54:50.018Z,18.70
2018-09-25T14:55:50.078Z,18.57
2018-09-25T14:56:49.959Z,18.58
2018-09-25T14:57:50.318Z,18.51
2018-09-25T14:58:49.939Z,18.56
2018-09-25T14:59:49.937Z,18.70
2018-09-25T15:00:50.101Z,18.86
2018-09-25T15:01:49.967Z,18.51
2018-09-25T15:02:49.890Z,18.41
2018-09-25T15:03:50.248Z,18.06
2018-09-25T15:04:49.872Z,17.76
2018-09-25T15:05:49.890Z,17.37
2018-09-25T15:06:49.864Z,16.98
2018-09-25T15:07:49.884Z,16.65
2018-09-25T15:08:49.813Z,16.40
2018-09-25T15:09:50.201Z,16.17
2018-09-25T15:10:49.811Z,15.95
2018-09-25T15:11:49.788Z,15.95
2018-09-25T15:12:49.768Z,15.83
2018-09-25T15:13:49.814Z,15.78
2018-09-25T15:14:49.741Z,15.81
2018-09-25T15:15:50.100Z,15.88
2018-09-25T15:16:49.752Z,16.24
2018-09-25T15:17:49.732Z,16.61
2018-09-25T15:18:49.759Z,16.95
2018-09-25T15:19:49.763Z,17.02
2018-09-25T15:20:49.699Z,17.19
2018-09-25T15:21:50.260Z,17.43
2018-09-25T15:22:49.907Z,17.59
2018-09-25T15:23:49.815Z,17.52
2018-09-25T15:24:49.940Z,17.04
2018-09-25T15:25:50.369Z,16.57
2018-09-25T15:26:50.780Z,16.33
2018-09-25T15:27:52.323Z,16.14
2018-09-25T15:28:49.955Z,15.98
2018-09-25T15:29:50.202Z,15.88
2018-09-25T15:30:50.144Z,15.84
2018-09-25T15:31:49.876Z,16.37
2018-09-25T15:32:50.351Z,16.73
2018-09-25T15:33:50.066Z,16.99
2018-09-25T15:34:49.828Z,17.06
2018-09-25T15:36:49.524Z,17.17
2018-09-25T15:37:49.508Z,17.16